sensor_id;sensor_type;location;lat;lon;timestamp;P1;durP1;ratioP1;P2;durP2;ratioP2
6828;SDS011;17930;48.592;8.868;2023-01-19T00:01:39;19.50;;;9.23;;
6828;SDS011;17930;48.592;8.868;2023-01-19T00:04:06;22.92;;;8.75;;
6828;SDS011;17930;48.592;8.868;2023-01-19T00:06:34;18.08;;;10.10;;
6828;SDS011;17930;48.592;8.868;2023-01-19T00:09:01;14.65;;;8.52;;
6828;SDS011;17930;48.592;8.868;2023-01-19T00:11:28;21.52;;;8.68;;
6828;SDS011;17930;48.592;8.868;2023-01-19T00:13:55;18.70;;;8.52;;
6828;SDS011;17930;48.592;8.868;2023-01-19T00:16:23;17.83;;;8.77;;
6828;SDS011;17930;48.592;8.868;2023-01-19T00:18:50;17.63;;;8.65;;
6828;SDS011;17930;48.592;8.868;2023-01-19T00:21:20;15.88;;;9.18;;
6828;SDS011;17930;48.592;8.868;2023-01-19T00:23:48;17.25;;;9.35;;
6828;SDS011;17930;48.592;8.868;2023-01-19T00:26:17;19.50;;;9.10;;
6828;SDS011;17930;48.592;8.868;2023-01-19T00:28:46;22.27;;;10.38;;
6828;SDS011;17930;48.592;8.868;2023-01-19T00:31:13;19.02;;;9.20;;
6828;SDS011;17930;48.592;8.868;2023-01-19T00:33:40;19.80;;;9.52;;
6828;SDS011;17930;48.592;8.868;2023-01-19T00:36:08;16.77;;;8.52;;
6828;SDS011;17930;48.592;8.868;2023-01-19T00:38:35;18.23;;;8.50;;
6828;SDS011;17930;48.592;8.868;2023-01-19T00:41:04;19.73;;;9.90;;
6828;SDS011;17930;48.592;8.868;2023-01-19T00:43:31;15.57;;;8.73;;
6828;SDS011;17930;48.592;8.868;2023-01-19T00:45:58;22.05;;;11.00;;
6828;SDS011;17930;48.592;8.868;2023-01-19T00:48:25;17.55;;;9.30;;
6828;SDS011;17930;48.592;8.868;2023-01-19T00:50:51;18.05;;;9.18;;
6828;SDS011;17930;48.592;8.868;2023-01-19T00:53:18;15.35;;;8.93;;
6828;SDS011;17930;48.592;8.868;2023-01-19T00:55:45;17.83;;;9.52;;
6828;SDS011;17930;48.592;8.868;2023-01-19T00:58:13;16.13;;;8.23;;
6828;SDS011;17930;48.592;8.868;2023-01-19T01:00:40;23.58;;;9.38;;
6828;SDS011;17930;48.592;8.868;2023-01-19T01:03:06;16.88;;;8.13;;
6828;SDS011;17930;48.592;8.868;2023-01-19T01:05:33;18.98;;;9.65;;
6828;SDS011;17930;48.592;8.868;2023-01-19T01:08:00;13.52;;;6.70;;
6828;SDS011;17930;48.592;8.868;2023-01-19T01:10:27;20.98;;;8.13;;
6828;SDS011;17930;48.592;8.868;2023-01-19T01:12:54;18.45;;;8.93;;
6828;SDS011;17930;48.592;8.868;2023-01-19T01:15:23;20.63;;;8.90;;
6828;SDS011;17930;48.592;8.868;2023-01-19T01:17:51;19.35;;;8.57;;
6828;SDS011;17930;48.592;8.868;2023-01-19T01:20:18;16.65;;;8.85;;
6828;SDS011;17930;48.592;8.868;2023-01-19T01:22:47;18.77;;;8.77;;
6828;SDS011;17930;48.592;8.868;2023-01-19T01:25:17;17.55;;;8.75;;
6828;SDS011;17930;48.592;8.868;2023-01-19T01:27:46;15.82;;;7.20;;
6828;SDS011;17930;48.592;8.868;2023-01-19T01:30:14;18.58;;;8.63;;
6828;SDS011;17930;48.592;8.868;2023-01-19T01:32:43;17.52;;;8.65;;
6828;SDS011;17930;48.592;8.868;2023-01-19T01:35:12;19.08;;;8.80;;
6828;SDS011;17930;48.592;8.868;2023-01-19T01:37:39;18.45;;;9.13;;
6828;SDS011;17930;48.592;8.868;2023-01-19T01:40:08;17.88;;;8.68;;
6828;SDS011;17930;48.592;8.868;2023-01-19T01:42:36;16.63;;;8.95;;
6828;SDS011;17930;48.592;8.868;2023-01-19T01:45:06;16.30;;;8.88;;
6828;SDS011;17930;48.592;8.868;2023-01-19T01:47:59;18.05;;;7.80;;
6828;SDS011;17930;48.592;8.868;2023-01-19T01:50:31;16.17;;;8.85;;
6828;SDS011;17930;48.592;8.868;2023-01-19T01:53:01;15.65;;;7.80;;
6828;SDS011;17930;48.592;8.868;2023-01-19T01:55:31;14.52;;;7.60;;
6828;SDS011;17930;48.592;8.868;2023-01-19T01:58:02;14.93;;;8.07;;
6828;SDS011;17930;48.592;8.868;2023-01-19T02:00:30;15.43;;;7.78;;
6828;SDS011;17930;48.592;8.868;2023-01-19T02:03:19;15.27;;;7.50;;
6828;SDS011;17930;48.592;8.868;2023-01-19T02:05:46;16.08;;;8.30;;
6828;SDS011;17930;48.592;8.868;2023-01-19T02:08:14;17.10;;;8.57;;
6828;SDS011;17930;48.592;8.868;2023-01-19T02:11:02;15.25;;;8.13;;
6828;SDS011;17930;48.592;8.868;2023-01-19T02:13:47;18.73;;;7.82;;
6828;SDS011;17930;48.592;8.868;2023-01-19T02:16:15;17.33;;;7.97;;
6828;SDS011;17930;48.592;8.868;2023-01-19T02:18:43;18.02;;;8.52;;
6828;SDS011;17930;48.592;8.868;2023-01-19T02:21:11;15.60;;;8.70;;
6828;SDS011;17930;48.592;8.868;2023-01-19T02:23:44;16.70;;;8.55;;
6828;SDS011;17930;48.592;8.868;2023-01-19T02:26:14;14.30;;;8.88;;
6828;SDS011;17930;48.592;8.868;2023-01-19T02:28:45;19.92;;;8.95;;
6828;SDS011;17930;48.592;8.868;2023-01-19T02:31:14;17.02;;;8.30;;
6828;SDS011;17930;48.592;8.868;2023-01-19T02:33:42;14.55;;;8.25;;
6828;SDS011;17930;48.592;8.868;2023-01-19T02:36:09;20.77;;;8.13;;
6828;SDS011;17930;48.592;8.868;2023-01-19T02:38:38;17.75;;;8.32;;
6828;SDS011;17930;48.592;8.868;2023-01-19T02:41:11;16.70;;;7.75;;
6828;SDS011;17930;48.592;8.868;2023-01-19T02:43:42;13.85;;;7.43;;
6828;SDS011;17930;48.592;8.868;2023-01-19T02:46:11;17.20;;;8.80;;
6828;SDS011;17930;48.592;8.868;2023-01-19T02:48:39;14.65;;;7.60;;
6828;SDS011;17930;48.592;8.868;2023-01-19T02:51:08;16.80;;;8.18;;
6828;SDS011;17930;48.592;8.868;2023-01-19T02:53:48;15.65;;;8.68;;
6828;SDS011;17930;48.592;8.868;2023-01-19T02:56:45;11.80;;;6.88;;
6828;SDS011;17930;48.592;8.868;2023-01-19T02:59:23;14.52;;;8.32;;
6828;SDS011;17930;48.592;8.868;2023-01-19T03:02:04;17.63;;;8.68;;
6828;SDS011;17930;48.592;8.868;2023-01-19T03:04:46;18.83;;;9.45;;
6828;SDS011;17930;48.592;8.868;2023-01-19T03:07:26;17.88;;;8.60;;
6828;SDS011;17930;48.592;8.868;2023-01-19T03:10:01;18.02;;;8.70;;
6828;SDS011;17930;48.592;8.868;2023-01-19T03:12:35;19.00;;;9.00;;
6828;SDS011;17930;48.592;8.868;2023-01-19T03:15:07;15.57;;;7.57;;
6828;SDS011;17930;48.592;8.868;2023-01-19T03:17:39;16.08;;;7.65;;
6828;SDS011;17930;48.592;8.868;2023-01-19T03:20:08;11.90;;;7.30;;
6828;SDS011;17930;48.592;8.868;2023-01-19T03:22:38;18.63;;;8.55;;
6828;SDS011;17930;48.592;8.868;2023-01-19T03:25:05;15.32;;;6.90;;
6828;SDS011;17930;48.592;8.868;2023-01-19T03:27:34;13.05;;;7.75;;
6828;SDS011;17930;48.592;8.868;2023-01-19T03:30:06;15.38;;;6.88;;
6828;SDS011;17930;48.592;8.868;2023-01-19T03:32:38;14.05;;;7.85;;
6828;SDS011;17930;48.592;8.868;2023-01-19T03:35:10;16.83;;;7.82;;
6828;SDS011;17930;48.592;8.868;2023-01-19T03:37:41;17.73;;;8.35;;
6828;SDS011;17930;48.592;8.868;2023-01-19T03:40:11;16.33;;;7.75;;
6828;SDS011;17930;48.592;8.868;2023-01-19T03:42:40;14.57;;;7.78;;
6828;SDS011;17930;48.592;8.868;2023-01-19T03:45:08;15.15;;;8.23;;
6828;SDS011;17930;48.592;8.868;2023-01-19T03:47:38;16.52;;;8.90;;
6828;SDS011;17930;48.592;8.868;2023-01-19T03:50:06;13.73;;;7.85;;
6828;SDS011;17930;48.592;8.868;2023-01-19T03:52:39;16.92;;;7.88;;
6828;SDS011;17930;48.592;8.868;2023-01-19T03:55:05;16.20;;;7.55;;
6828;SDS011;17930;48.592;8.868;2023-01-19T03:57:33;15.15;;;7.97;;
6828;SDS011;17930;48.592;8.868;2023-01-19T04:00:03;18.15;;;8.98;;
6828;SDS011;17930;48.592;8.868;2023-01-19T04:02:30;18.15;;;8.20;;
6828;SDS011;17930;48.592;8.868;2023-01-19T04:04:57;17.05;;;8.25;;
6828;SDS011;17930;48.592;8.868;2023-01-19T04:07:23;17.08;;;7.95;;
6828;SDS011;17930;48.592;8.868;2023-01-19T04:09:51;18.05;;;8.45;;
6828;SDS011;17930;48.592;8.868;2023-01-19T04:12:18;17.83;;;8.20;;
6828;SDS011;17930;48.592;8.868;2023-01-19T04:14:44;17.27;;;8.18;;
6828;SDS011;17930;48.592;8.868;2023-01-19T04:17:13;16.73;;;7.93;;
6828;SDS011;17930;48.592;8.868;2023-01-19T04:19:40;19.08;;;8.63;;
6828;SDS011;17930;48.592;8.868;2023-01-19T04:22:07;15.05;;;8.23;;
6828;SDS011;17930;48.592;8.868;2023-01-19T04:24:34;18.42;;;8.57;;
6828;SDS011;17930;48.592;8.868;2023-01-19T04:27:01;16.10;;;8.45;;
6828;SDS011;17930;48.592;8.868;2023-01-19T04:29:28;19.38;;;8.98;;
6828;SDS011;17930;48.592;8.868;2023-01-19T04:31:54;16.85;;;8.40;;
6828;SDS011;17930;48.592;8.868;2023-01-19T04:34:22;15.82;;;7.75;;
6828;SDS011;17930;48.592;8.868;2023-01-19T04:36:49;15.65;;;8.05;;
6828;SDS011;17930;48.592;8.868;2023-01-19T04:39:16;13.52;;;8.43;;
6828;SDS011;17930;48.592;8.868;2023-01-19T04:41:46;13.85;;;7.88;;
6828;SDS011;17930;48.592;8.868;2023-01-19T04:44:12;18.45;;;8.40;;
6828;SDS011;17930;48.592;8.868;2023-01-19T04:46:48;15.93;;;8.52;;
6828;SDS011;17930;48.592;8.868;2023-01-19T04:49:19;16.58;;;9.25;;
6828;SDS011;17930;48.592;8.868;2023-01-19T04:51:47;18.63;;;8.68;;
6828;SDS011;17930;48.592;8.868;2023-01-19T04:54:14;16.17;;;8.35;;
6828;SDS011;17930;48.592;8.868;2023-01-19T04:56:41;15.57;;;8.43;;
6828;SDS011;17930;48.592;8.868;2023-01-19T04:59:07;12.85;;;6.95;;
6828;SDS011;17930;48.592;8.868;2023-01-19T05:01:34;13.95;;;7.28;;
6828;SDS011;17930;48.592;8.868;2023-01-19T05:04:01;14.07;;;6.75;;
6828;SDS011;17930;48.592;8.868;2023-01-19T05:06:29;12.90;;;7.10;;
6828;SDS011;17930;48.592;8.868;2023-01-19T05:08:57;15.55;;;8.32;;
6828;SDS011;17930;48.592;8.868;2023-01-19T05:11:24;17.85;;;7.82;;
6828;SDS011;17930;48.592;8.868;2023-01-19T05:13:51;15.98;;;7.13;;
6828;SDS011;17930;48.592;8.868;2023-01-19T05:16:17;20.35;;;7.75;;
6828;SDS011;17930;48.592;8.868;2023-01-19T05:18:44;13.52;;;7.22;;
6828;SDS011;17930;48.592;8.868;2023-01-19T05:21:10;12.98;;;7.35;;
6828;SDS011;17930;48.592;8.868;2023-01-19T05:23:37;12.00;;;6.70;;
6828;SDS011;17930;48.592;8.868;2023-01-19T05:26:05;14.23;;;6.97;;
6828;SDS011;17930;48.592;8.868;2023-01-19T05:28:32;15.18;;;7.82;;
6828;SDS011;17930;48.592;8.868;2023-01-19T05:30:59;14.85;;;6.75;;
6828;SDS011;17930;48.592;8.868;2023-01-19T05:33:26;12.80;;;7.28;;
6828;SDS011;17930;48.592;8.868;2023-01-19T05:35:53;14.25;;;7.10;;
6828;SDS011;17930;48.592;8.868;2023-01-19T05:38:20;18.65;;;7.70;;
6828;SDS011;17930;48.592;8.868;2023-01-19T05:40:47;16.05;;;7.88;;
6828;SDS011;17930;48.592;8.868;2023-01-19T05:43:15;13.27;;;5.80;;
6828;SDS011;17930;48.592;8.868;2023-01-19T05:45:42;15.70;;;7.75;;
6828;SDS011;17930;48.592;8.868;2023-01-19T05:48:09;15.63;;;6.95;;
6828;SDS011;17930;48.592;8.868;2023-01-19T05:50:55;14.60;;;6.07;;
6828;SDS011;17930;48.592;8.868;2023-01-19T05:53:22;13.57;;;6.25;;
6828;SDS011;17930;48.592;8.868;2023-01-19T05:55:49;11.65;;;6.40;;
6828;SDS011;17930;48.592;8.868;2023-01-19T05:58:17;16.55;;;7.88;;
6828;SDS011;17930;48.592;8.868;2023-01-19T06:00:44;14.30;;;7.13;;
6828;SDS011;17930;48.592;8.868;2023-01-19T06:03:11;12.82;;;6.40;;
6828;SDS011;17930;48.592;8.868;2023-01-19T06:05:37;16.70;;;7.28;;
6828;SDS011;17930;48.592;8.868;2023-01-19T06:08:04;15.93;;;7.65;;
6828;SDS011;17930;48.592;8.868;2023-01-19T06:10:31;14.77;;;6.72;;
6828;SDS011;17930;48.592;8.868;2023-01-19T06:12:58;13.82;;;6.55;;
6828;SDS011;17930;48.592;8.868;2023-01-19T06:15:26;17.40;;;7.25;;
6828;SDS011;17930;48.592;8.868;2023-01-19T06:17:52;13.05;;;7.20;;
6828;SDS011;17930;48.592;8.868;2023-01-19T06:20:19;18.48;;;8.20;;
6828;SDS011;17930;48.592;8.868;2023-01-19T06:22:46;14.43;;;7.53;;
6828;SDS011;17930;48.592;8.868;2023-01-19T06:25:12;14.98;;;7.65;;
6828;SDS011;17930;48.592;8.868;2023-01-19T06:27:41;23.10;;;9.75;;
6828;SDS011;17930;48.592;8.868;2023-01-19T06:30:09;15.30;;;7.28;;
6828;SDS011;17930;48.592;8.868;2023-01-19T06:32:39;14.57;;;7.10;;
6828;SDS011;17930;48.592;8.868;2023-01-19T06:35:06;16.70;;;7.47;;
6828;SDS011;17930;48.592;8.868;2023-01-19T06:37:33;14.82;;;7.43;;
6828;SDS011;17930;48.592;8.868;2023-01-19T06:39:59;14.07;;;7.68;;
6828;SDS011;17930;48.592;8.868;2023-01-19T06:42:26;12.90;;;7.32;;
6828;SDS011;17930;48.592;8.868;2023-01-19T06:44:52;14.07;;;7.78;;
6828;SDS011;17930;48.592;8.868;2023-01-19T06:47:19;15.02;;;7.82;;
6828;SDS011;17930;48.592;8.868;2023-01-19T06:49:47;15.90;;;9.15;;
6828;SDS011;17930;48.592;8.868;2023-01-19T06:52:14;20.90;;;7.28;;
6828;SDS011;17930;48.592;8.868;2023-01-19T06:54:42;13.30;;;7.40;;
6828;SDS011;17930;48.592;8.868;2023-01-19T06:57:09;14.70;;;6.97;;
6828;SDS011;17930;48.592;8.868;2023-01-19T06:59:36;19.58;;;8.07;;
6828;SDS011;17930;48.592;8.868;2023-01-19T07:02:02;11.45;;;6.30;;
6828;SDS011;17930;48.592;8.868;2023-01-19T07:04:29;16.95;;;7.45;;
6828;SDS011;17930;48.592;8.868;2023-01-19T07:06:57;13.63;;;6.90;;
6828;SDS011;17930;48.592;8.868;2023-01-19T07:09:24;14.80;;;6.55;;
6828;SDS011;17930;48.592;8.868;2023-01-19T07:11:53;13.95;;;7.50;;
6828;SDS011;17930;48.592;8.868;2023-01-19T07:14:20;14.05;;;6.82;;
6828;SDS011;17930;48.592;8.868;2023-01-19T07:16:46;12.73;;;6.88;;
6828;SDS011;17930;48.592;8.868;2023-01-19T07:19:13;12.85;;;6.30;;
6828;SDS011;17930;48.592;8.868;2023-01-19T07:21:40;13.30;;;6.68;;
6828;SDS011;17930;48.592;8.868;2023-01-19T07:24:08;12.27;;;7.00;;
6828;SDS011;17930;48.592;8.868;2023-01-19T07:26:34;14.90;;;7.00;;
6828;SDS011;17930;48.592;8.868;2023-01-19T07:29:01;14.45;;;6.80;;
6828;SDS011;17930;48.592;8.868;2023-01-19T07:31:28;10.70;;;6.78;;
6828;SDS011;17930;48.592;8.868;2023-01-19T07:33:54;13.63;;;6.22;;
6828;SDS011;17930;48.592;8.868;2023-01-19T07:36:22;14.10;;;6.43;;
6828;SDS011;17930;48.592;8.868;2023-01-19T07:38:48;13.15;;;6.70;;
6828;SDS011;17930;48.592;8.868;2023-01-19T07:41:16;14.38;;;7.85;;
6828;SDS011;17930;48.592;8.868;2023-01-19T07:43:43;16.17;;;6.85;;
6828;SDS011;17930;48.592;8.868;2023-01-19T07:46:10;11.65;;;6.45;;
6828;SDS011;17930;48.592;8.868;2023-01-19T07:48:36;12.50;;;6.30;;
6828;SDS011;17930;48.592;8.868;2023-01-19T07:51:03;13.77;;;6.68;;
6828;SDS011;17930;48.592;8.868;2023-01-19T07:53:32;14.45;;;7.00;;
6828;SDS011;17930;48.592;8.868;2023-01-19T07:55:59;14.10;;;6.57;;
6828;SDS011;17930;48.592;8.868;2023-01-19T07:58:28;14.05;;;6.53;;
6828;SDS011;17930;48.592;8.868;2023-01-19T08:00:55;9.77;;;5.53;;
6828;SDS011;17930;48.592;8.868;2023-01-19T08:03:21;11.07;;;6.07;;
6828;SDS011;17930;48.592;8.868;2023-01-19T08:05:48;12.77;;;6.35;;
6828;SDS011;17930;48.592;8.868;2023-01-19T08:08:16;12.13;;;6.35;;
6828;SDS011;17930;48.592;8.868;2023-01-19T08:10:43;12.93;;;6.53;;
6828;SDS011;17930;48.592;8.868;2023-01-19T08:13:10;14.93;;;7.05;;
6828;SDS011;17930;48.592;8.868;2023-01-19T08:15:38;10.25;;;5.60;;
6828;SDS011;17930;48.592;8.868;2023-01-19T08:18:05;11.65;;;6.28;;
6828;SDS011;17930;48.592;8.868;2023-01-19T08:20:34;12.50;;;6.60;;
6828;SDS011;17930;48.592;8.868;2023-01-19T08:23:00;12.32;;;6.88;;
6828;SDS011;17930;48.592;8.868;2023-01-19T08:25:31;12.63;;;6.50;;
6828;SDS011;17930;48.592;8.868;2023-01-19T08:27:59;13.48;;;6.70;;
6828;SDS011;17930;48.592;8.868;2023-01-19T08:30:26;15.55;;;7.63;;
6828;SDS011;17930;48.592;8.868;2023-01-19T08:32:55;18.83;;;9.80;;
6828;SDS011;17930;48.592;8.868;2023-01-19T08:35:28;10.68;;;6.20;;
6828;SDS011;17930;48.592;8.868;2023-01-19T08:37:55;10.18;;;6.70;;
6828;SDS011;17930;48.592;8.868;2023-01-19T08:40:25;9.05;;;5.40;;
6828;SDS011;17930;48.592;8.868;2023-01-19T08:42:52;9.23;;;4.93;;
6828;SDS011;17930;48.592;8.868;2023-01-19T08:45:24;8.85;;;5.38;;
6828;SDS011;17930;48.592;8.868;2023-01-19T08:47:51;6.47;;;4.63;;
6828;SDS011;17930;48.592;8.868;2023-01-19T08:50:19;9.40;;;4.30;;
6828;SDS011;17930;48.592;8.868;2023-01-19T08:52:46;7.50;;;4.72;;
6828;SDS011;17930;48.592;8.868;2023-01-19T08:55:13;7.20;;;4.38;;
6828;SDS011;17930;48.592;8.868;2023-01-19T08:57:40;7.18;;;4.38;;
6828;SDS011;17930;48.592;8.868;2023-01-19T09:00:07;9.13;;;4.55;;
6828;SDS011;17930;48.592;8.868;2023-01-19T09:02:35;7.25;;;4.20;;
6828;SDS011;17930;48.592;8.868;2023-01-19T09:05:02;5.93;;;4.18;;
6828;SDS011;17930;48.592;8.868;2023-01-19T09:07:31;6.28;;;3.83;;
6828;SDS011;17930;48.592;8.868;2023-01-19T09:09:57;8.35;;;4.15;;
6828;SDS011;17930;48.592;8.868;2023-01-19T09:12:24;5.30;;;3.67;;
6828;SDS011;17930;48.592;8.868;2023-01-19T09:14:51;9.35;;;4.22;;
6828;SDS011;17930;48.592;8.868;2023-01-19T09:17:17;6.53;;;4.22;;
6828;SDS011;17930;48.592;8.868;2023-01-19T09:19:44;5.65;;;3.80;;
6828;SDS011;17930;48.592;8.868;2023-01-19T09:22:11;6.10;;;4.25;;
6828;SDS011;17930;48.592;8.868;2023-01-19T09:24:38;7.65;;;3.80;;
6828;SDS011;17930;48.592;8.868;2023-01-19T09:27:05;7.15;;;4.10;;
6828;SDS011;17930;48.592;8.868;2023-01-19T09:29:32;5.95;;;4.03;;
6828;SDS011;17930;48.592;8.868;2023-01-19T09:32:00;7.57;;;4.45;;
6828;SDS011;17930;48.592;8.868;2023-01-19T09:34:27;6.85;;;3.88;;
6828;SDS011;17930;48.592;8.868;2023-01-19T09:36:55;8.15;;;3.72;;
6828;SDS011;17930;48.592;8.868;2023-01-19T09:39:21;8.88;;;4.25;;
6828;SDS011;17930;48.592;8.868;2023-01-19T09:41:50;8.68;;;4.28;;
6828;SDS011;17930;48.592;8.868;2023-01-19T09:44:25;5.55;;;3.40;;
6828;SDS011;17930;48.592;8.868;2023-01-19T09:46:54;6.95;;;3.75;;
6828;SDS011;17930;48.592;8.868;2023-01-19T09:49:23;6.65;;;3.78;;
6828;SDS011;17930;48.592;8.868;2023-01-19T09:51:55;6.47;;;3.67;;
6828;SDS011;17930;48.592;8.868;2023-01-19T09:54:26;9.77;;;4.30;;
6828;SDS011;17930;48.592;8.868;2023-01-19T09:56:59;10.07;;;3.88;;
6828;SDS011;17930;48.592;8.868;2023-01-19T09:59:27;10.32;;;4.90;;
6828;SDS011;17930;48.592;8.868;2023-01-19T10:01:59;7.95;;;3.88;;
6828;SDS011;17930;48.592;8.868;2023-01-19T10:04:45;11.70;;;4.63;;
6828;SDS011;17930;48.592;8.868;2023-01-19T10:07:24;9.57;;;4.65;;
6828;SDS011;17930;48.592;8.868;2023-01-19T10:10:04;9.30;;;4.82;;
6828;SDS011;17930;48.592;8.868;2023-01-19T10:12:40;8.27;;;4.75;;
6828;SDS011;17930;48.592;8.868;2023-01-19T10:15:18;9.90;;;5.20;;
6828;SDS011;17930;48.592;8.868;2023-01-19T10:17:57;7.60;;;4.50;;
6828;SDS011;17930;48.592;8.868;2023-01-19T10:20:38;6.75;;;4.40;;
6828;SDS011;17930;48.592;8.868;2023-01-19T10:23:14;4.85;;;3.40;;
6828;SDS011;17930;48.592;8.868;2023-01-19T10:25:58;9.70;;;4.78;;
6828;SDS011;17930;48.592;8.868;2023-01-19T10:28:31;22.15;;;5.07;;
6828;SDS011;17930;48.592;8.868;2023-01-19T10:30:58;7.18;;;4.43;;
6828;SDS011;17930;48.592;8.868;2023-01-19T10:33:25;7.78;;;4.07;;
6828;SDS011;17930;48.592;8.868;2023-01-19T10:35:52;10.27;;;4.63;;
6828;SDS011;17930;48.592;8.868;2023-01-19T10:38:19;7.60;;;4.07;;
6828;SDS011;17930;48.592;8.868;2023-01-19T10:40:48;5.97;;;4.00;;
6828;SDS011;17930;48.592;8.868;2023-01-19T10:46:20;7.50;;;4.15;;
6828;SDS011;17930;48.592;8.868;2023-01-19T10:48:50;9.15;;;3.90;;
6828;SDS011;17930;48.592;8.868;2023-01-19T10:51:18;9.18;;;3.53;;
6828;SDS011;17930;48.592;8.868;2023-01-19T10:53:53;8.10;;;3.95;;
6828;SDS011;17930;48.592;8.868;2023-01-19T10:56:23;9.48;;;4.50;;
6828;SDS011;17930;48.592;8.868;2023-01-19T10:58:53;8.00;;;4.50;;
6828;SDS011;17930;48.592;8.868;2023-01-19T11:01:20;6.93;;;4.15;;
6828;SDS011;17930;48.592;8.868;2023-01-19T11:03:49;6.45;;;4.10;;
6828;SDS011;17930;48.592;8.868;2023-01-19T11:06:18;6.93;;;3.67;;
6828;SDS011;17930;48.592;8.868;2023-01-19T11:08:49;7.50;;;3.92;;
6828;SDS011;17930;48.592;8.868;2023-01-19T11:11:19;8.60;;;4.30;;
6828;SDS011;17930;48.592;8.868;2023-01-19T11:16:32;8.70;;;3.92;;
6828;SDS011;17930;48.592;8.868;2023-01-19T11:19:02;5.72;;;3.47;;
6828;SDS011;17930;48.592;8.868;2023-01-19T11:21:29;7.05;;;4.10;;
6828;SDS011;17930;48.592;8.868;2023-01-19T11:23:58;10.18;;;3.70;;
6828;SDS011;17930;48.592;8.868;2023-01-19T11:26:31;6.22;;;3.55;;
6828;SDS011;17930;48.592;8.868;2023-01-19T11:29:01;8.27;;;3.88;;
6828;SDS011;17930;48.592;8.868;2023-01-19T11:31:31;8.25;;;4.15;;
6828;SDS011;17930;48.592;8.868;2023-01-19T11:34:00;7.65;;;3.17;;
6828;SDS011;17930;48.592;8.868;2023-01-19T11:36:29;9.32;;;3.58;;
6828;SDS011;17930;48.592;8.868;2023-01-19T11:38:58;8.20;;;3.88;;
6828;SDS011;17930;48.592;8.868;2023-01-19T11:41:27;8.00;;;3.70;;
6828;SDS011;17930;48.592;8.868;2023-01-19T11:43:56;7.80;;;3.92;;
6828;SDS011;17930;48.592;8.868;2023-01-19T11:46:30;6.30;;;3.97;;
6828;SDS011;17930;48.592;8.868;2023-01-19T11:49:00;8.77;;;4.25;;
6828;SDS011;17930;48.592;8.868;2023-01-19T11:51:33;8.98;;;3.90;;
6828;SDS011;17930;48.592;8.868;2023-01-19T11:54:07;7.55;;;3.80;;
6828;SDS011;17930;48.592;8.868;2023-01-19T11:56:52;8.27;;;4.00;;
6828;SDS011;17930;48.592;8.868;2023-01-19T11:59:21;6.93;;;3.80;;
6828;SDS011;17930;48.592;8.868;2023-01-19T12:01:50;7.63;;;3.65;;
6828;SDS011;17930;48.592;8.868;2023-01-19T12:04:23;7.70;;;3.92;;
6828;SDS011;17930;48.592;8.868;2023-01-19T12:06:53;7.95;;;4.30;;
6828;SDS011;17930;48.592;8.868;2023-01-19T12:09:22;6.55;;;3.63;;
6828;SDS011;17930;48.592;8.868;2023-01-19T12:11:54;5.75;;;3.88;;
6828;SDS011;17930;48.592;8.868;2023-01-19T12:14:26;4.80;;;3.72;;
6828;SDS011;17930;48.592;8.868;2023-01-19T12:17:01;5.88;;;3.28;;
6828;SDS011;17930;48.592;8.868;2023-01-19T12:19:33;4.78;;;2.72;;
6828;SDS011;17930;48.592;8.868;2023-01-19T12:22:08;10.88;;;4.55;;
6828;SDS011;17930;48.592;8.868;2023-01-19T12:24:39;7.72;;;3.70;;
6828;SDS011;17930;48.592;8.868;2023-01-19T12:27:12;6.28;;;3.40;;
6828;SDS011;17930;48.592;8.868;2023-01-19T12:29:48;3.20;;;2.22;;
6828;SDS011;17930;48.592;8.868;2023-01-19T12:32:16;6.82;;;2.70;;
6828;SDS011;17930;48.592;8.868;2023-01-19T12:34:45;6.05;;;2.58;;
6828;SDS011;17930;48.592;8.868;2023-01-19T12:37:27;11.20;;;2.95;;
6828;SDS011;17930;48.592;8.868;2023-01-19T12:39:59;7.30;;;3.65;;
6828;SDS011;17930;48.592;8.868;2023-01-19T12:42:29;5.68;;;2.30;;
6828;SDS011;17930;48.592;8.868;2023-01-19T12:45:03;2.75;;;2.00;;
6828;SDS011;17930;48.592;8.868;2023-01-19T12:47:34;4.97;;;2.33;;
6828;SDS011;17930;48.592;8.868;2023-01-19T12:50:03;4.38;;;2.13;;
6828;SDS011;17930;48.592;8.868;2023-01-19T12:52:33;7.95;;;2.70;;
6828;SDS011;17930;48.592;8.868;2023-01-19T12:55:19;5.13;;;2.58;;
6828;SDS011;17930;48.592;8.868;2023-01-19T12:57:50;4.63;;;2.40;;
6828;SDS011;17930;48.592;8.868;2023-01-19T13:00:29;6.45;;;2.55;;
6828;SDS011;17930;48.592;8.868;2023-01-19T13:02:59;3.58;;;2.08;;
6828;SDS011;17930;48.592;8.868;2023-01-19T13:08:25;5.40;;;2.78;;
6828;SDS011;17930;48.592;8.868;2023-01-19T13:13:41;5.72;;;3.38;;
6828;SDS011;17930;48.592;8.868;2023-01-19T13:19:15;4.10;;;2.45;;
6828;SDS011;17930;48.592;8.868;2023-01-19T13:21:47;5.32;;;2.85;;
6828;SDS011;17930;48.592;8.868;2023-01-19T13:24:16;3.78;;;2.63;;
6828;SDS011;17930;48.592;8.868;2023-01-19T13:26:53;2.58;;;2.17;;
6828;SDS011;17930;48.592;8.868;2023-01-19T13:29:24;5.55;;;2.33;;
6828;SDS011;17930;48.592;8.868;2023-01-19T13:31:57;3.63;;;2.38;;
6828;SDS011;17930;48.592;8.868;2023-01-19T13:34:34;6.70;;;3.83;;
6828;SDS011;17930;48.592;8.868;2023-01-19T13:37:06;17.15;;;7.28;;
6828;SDS011;17930;48.592;8.868;2023-01-19T13:39:47;10.13;;;5.38;;
6828;SDS011;17930;48.592;8.868;2023-01-19T13:42:16;12.68;;;6.32;;
6828;SDS011;17930;48.592;8.868;2023-01-19T13:44:50;7.63;;;3.38;;
6828;SDS011;17930;48.592;8.868;2023-01-19T13:47:20;7.72;;;3.20;;
6828;SDS011;17930;48.592;8.868;2023-01-19T13:49:53;5.07;;;2.85;;
6828;SDS011;17930;48.592;8.868;2023-01-19T13:52:22;9.27;;;3.45;;
6828;SDS011;17930;48.592;8.868;2023-01-19T13:54:51;10.73;;;4.40;;
6828;SDS011;17930;48.592;8.868;2023-01-19T13:57:38;9.98;;;4.03;;
6828;SDS011;17930;48.592;8.868;2023-01-19T14:00:18;3.60;;;2.50;;
6828;SDS011;17930;48.592;8.868;2023-01-19T14:03:20;5.75;;;2.90;;
6828;SDS011;17930;48.592;8.868;2023-01-19T14:06:45;5.53;;;3.28;;
6828;SDS011;17930;48.592;8.868;2023-01-19T14:09:18;6.47;;;3.00;;
6828;SDS011;17930;48.592;8.868;2023-01-19T14:12:13;4.38;;;3.10;;
6828;SDS011;17930;48.592;8.868;2023-01-19T14:14:47;6.07;;;3.50;;
6828;SDS011;17930;48.592;8.868;2023-01-19T14:17:19;6.05;;;2.78;;
6828;SDS011;17930;48.592;8.868;2023-01-19T14:19:57;4.18;;;2.47;;
6828;SDS011;17930;48.592;8.868;2023-01-19T14:22:38;5.35;;;2.83;;
6828;SDS011;17930;48.592;8.868;2023-01-19T14:25:25;4.90;;;2.45;;
6828;SDS011;17930;48.592;8.868;2023-01-19T14:31:19;4.25;;;2.58;;
6828;SDS011;17930;48.592;8.868;2023-01-19T14:33:52;5.45;;;2.45;;
6828;SDS011;17930;48.592;8.868;2023-01-19T14:36:24;6.40;;;2.22;;
6828;SDS011;17930;48.592;8.868;2023-01-19T14:41:46;3.60;;;2.80;;
6828;SDS011;17930;48.592;8.868;2023-01-19T14:44:17;3.80;;;3.10;;
6828;SDS011;17930;48.592;8.868;2023-01-19T14:46:52;8.10;;;4.85;;
6828;SDS011;17930;48.592;8.868;2023-01-19T14:49:32;4.15;;;3.30;;
6828;SDS011;17930;48.592;8.868;2023-01-19T14:52:03;12.60;;;8.07;;
6828;SDS011;17930;48.592;8.868;2023-01-19T14:54:41;4.40;;;2.83;;
6828;SDS011;17930;48.592;8.868;2023-01-19T14:57:12;6.35;;;2.90;;
6828;SDS011;17930;48.592;8.868;2023-01-19T14:59:48;3.25;;;2.25;;
6828;SDS011;17930;48.592;8.868;2023-01-19T15:02:21;4.97;;;3.13;;
6828;SDS011;17930;48.592;8.868;2023-01-19T15:04:48;3.67;;;2.70;;
6828;SDS011;17930;48.592;8.868;2023-01-19T15:07:19;6.93;;;3.65;;
6828;SDS011;17930;48.592;8.868;2023-01-19T15:09:50;6.10;;;3.08;;
6828;SDS011;17930;48.592;8.868;2023-01-19T15:12:17;3.33;;;2.22;;
6828;SDS011;17930;48.592;8.868;2023-01-19T15:14:44;5.15;;;2.40;;
6828;SDS011;17930;48.592;8.868;2023-01-19T15:17:15;2.88;;;2.00;;
6828;SDS011;17930;48.592;8.868;2023-01-19T15:19:49;3.60;;;2.10;;
6828;SDS011;17930;48.592;8.868;2023-01-19T15:22:18;3.67;;;2.33;;
6828;SDS011;17930;48.592;8.868;2023-01-19T15:24:46;3.25;;;2.42;;
6828;SDS011;17930;48.592;8.868;2023-01-19T15:27:14;3.88;;;2.63;;
6828;SDS011;17930;48.592;8.868;2023-01-19T15:29:43;7.65;;;3.45;;
6828;SDS011;17930;48.592;8.868;2023-01-19T15:32:11;6.13;;;3.05;;